Time;durP1;ratioP1;P1;durP2;ratioP2;P2;SDS_P1;SDS_P2;PMS_P1;PMS_P2;Temp;Humidity;BMP_temperature;BMP_pressure;BME280_temperature;BME280_humidity;BME280_pressure;Samples;Min_cycle;Max_cycle;Signal;HPM_P1;HPM_P2
2023/11/20 04:00:32;;;;;;;1.45;0.93;;;11.10;99.90;;;;;;6033670;23;19951;-77
2023/11/20 04:02:58;;;;;;;1.05;1.02;;;11.10;99.90;;;;;;4947509;28;20054;-77
2023/11/20 04:05:24;;;;;;;0.77;0.77;;;11.10;99.90;;;;;;4942733;28;20070;-78
2023/11/20 04:07:50;;;;;;;1.25;0.85;;;11.10;99.90;;;;;;4945420;29;20023;-77
2023/11/20 04:10:16;;;;;;;1.98;1.08;;;11.10;99.90;;;;;;4950648;29;20022;-76
2023/11/20 04:12:45;;;;;;;1.05;1.00;;;11.10;99.90;;;;;;4947876;29;20019;-79
2023/11/20 04:15:11;;;;;;;0.98;0.90;;;11.10;99.90;;;;;;4951577;28;20625;-78
2023/11/20 04:17:37;;;;;;;0.88;0.77;;;11.10;99.90;;;;;;4945019;28;20464;-78
2023/11/20 04:20:03;;;;;;;0.88;0.88;;;11.10;99.90;;;;;;4950975;29;20041;-78
2023/11/20 04:22:29;;;;;;;3.30;1.30;;;11.20;99.90;;;;;;4951761;28;20046;-78
2023/11/20 04:24:55;;;;;;;1.10;0.93;;;11.10;99.90;;;;;;4951807;29;20047;-78
2023/11/20 04:27:20;;;;;;;4.72;0.90;;;11.10;99.90;;;;;;4948000;28;20058;-77
2023/11/20 04:29:46;;;;;;;2.65;0.70;;;11.10;99.90;;;;;;4948728;29;20038;-76
2023/11/20 04:32:11;;;;;;;1.15;0.95;;;11.10;99.90;;;;;;4951680;29;20027;-78
2023/11/20 04:34:37;;;;;;;1.40;0.80;;;11.10;99.90;;;;;;4948148;29;20027;-78
2023/11/20 04:37:02;;;;;;;2.25;1.00;;;11.10;99.90;;;;;;4951598;29;20071;-77
2023/11/20 04:39:28;;;;;;;3.13;1.33;;;11.10;99.90;;;;;;4950731;29;20106;-78
2023/11/20 04:41:54;;;;;;;1.17;0.85;;;11.10;99.90;;;;;;4952586;28;20038;-77
2023/11/20 04:44:19;;;;;;;1.58;1.23;;;11.10;99.90;;;;;;4946542;29;20027;-78
2023/11/20 04:46:45;;;;;;;1.27;1.05;;;11.10;99.90;;;;;;4947570;29;20435;-78
2023/11/20 04:49:10;;;;;;;3.53;1.02;;;11.10;99.90;;;;;;4947005;29;20064;-78
2023/11/20 04:51:36;;;;;;;1.13;0.77;;;11.10;99.90;;;;;;4950186;29;20511;-78
2023/11/20 04:54:01;;;;;;;1.10;1.00;;;11.10;99.90;;;;;;4951533;29;20049;-78
2023/11/20 04:56:27;;;;;;;1.00;0.90;;;11.10;99.90;;;;;;4944005;29;20031;-78
2023/11/20 04:58:53;;;;;;;3.53;1.15;;;11.10;99.90;;;;;;4948836;28;20161;-77
2023/11/20 05:01:21;;;;;;;2.47;1.23;;;11.10;99.90;;;;;;4950993;29;20098;-78
2023/11/20 05:03:46;;;;;;;1.88;0.90;;;11.10;99.90;;;;;;4945101;29;20023;-78
2023/11/20 05:06:12;;;;;;;4.22;1.10;;;11.10;99.90;;;;;;4948513;28;20027;-77
2023/11/20 05:08:37;;;;;;;4.53;1.13;;;11.10;99.90;;;;;;4953555;29;20027;-78
2023/11/20 05:11:03;;;;;;;2.25;1.33;;;11.10;99.90;;;;;;4955234;29;20393;-77
2023/11/20 05:13:29;;;;;;;4.57;1.63;;;11.10;99.90;;;;;;4955896;28;20019;-76
2023/11/20 05:15:54;;;;;;;2.70;1.02;;;11.10;99.90;;;;;;4947952;29;20027;-78
2023/11/20 05:18:20;;;;;;;1.17;0.88;;;11.10;99.90;;;;;;4955329;29;20039;-76
2023/11/20 05:20:46;;;;;;;4.30;1.58;;;11.10;99.90;;;;;;4955999;28;20107;-78
2023/11/20 05:23:11;;;;;;;4.30;1.40;;;11.10;99.90;;;;;;4954321;28;20015;-78
2023/11/20 05:25:37;;;;;;;2.30;1.00;;;11.10;99.90;;;;;;4951633;29;20028;-78
2023/11/20 05:28:03;;;;;;;3.03;1.15;;;11.10;99.90;;;;;;4954274;29;20077;-76
2023/11/20 05:30:28;;;;;;;1.55;1.20;;;11.10;99.90;;;;;;4955292;28;20054;-78
2023/11/20 05:32:54;;;;;;;5.25;1.20;;;11.10;99.90;;;;;;4952390;28;20064;-78
2023/11/20 05:35:19;;;;;;;5.15;1.20;;;11.10;99.90;;;;;;4951679;29;20027;-77
2023/11/20 05:37:45;;;;;;;2.38;1.33;;;11.10;99.90;;;;;;4952682;29;20030;-78
2023/11/20 05:40:13;;;;;;;4.20;1.33;;;11.00;99.90;;;;;;4949850;29;20020;-78
2023/11/20 05:42:40;;;;;;;7.65;0.93;;;11.00;99.90;;;;;;4954399;28;20034;-78
2023/11/20 05:45:06;;;;;;;1.55;1.35;;;11.10;99.90;;;;;;4954388;28;20063;-78
2023/11/20 05:47:31;;;;;;;3.78;1.25;;;11.10;99.90;;;;;;4962129;28;20031;-78
2023/11/20 05:49:57;;;;;;;2.63;1.10;;;11.10;99.90;;;;;;4953323;29;20503;-78
2023/11/20 05:52:23;;;;;;;2.35;1.13;;;11.10;99.90;;;;;;4953760;29;20028;-78
2023/11/20 05:54:48;;;;;;;5.32;1.30;;;11.10;99.90;;;;;;4950354;29;20476;-77
2023/11/20 05:57:14;;;;;;;4.57;1.25;;;11.10;99.90;;;;;;4954415;29;20752;-78
2023/11/20 05:59:39;;;;;;;5.97;1.50;;;11.00;99.90;;;;;;4953092;29;20863;-77
2023/11/20 06:02:05;;;;;;;6.75;1.55;;;11.10;99.90;;;;;;4953485;29;20045;-77
2023/11/20 06:04:31;;;;;;;3.08;1.50;;;11.10;99.90;;;;;;4952722;28;20236;-78
2023/11/20 06:06:56;;;;;;;4.00;1.23;;;11.10;99.90;;;;;;4953162;28;20122;-77
2023/11/20 06:09:22;;;;;;;2.35;1.10;;;11.10;99.90;;;;;;4951226;29;20097;-77
2023/11/20 06:11:50;;;;;;;3.10;1.38;;;11.10;99.90;;;;;;4948586;29;20224;-77
2023/11/20 06:14:16;;;;;;;4.10;1.30;;;11.10;99.90;;;;;;4951269;29;20030;-76
2023/11/20 06:16:42;;;;;;;2.42;1.35;;;11.10;99.90;;;;;;4952230;29;20117;-76
2023/11/20 06:19:07;;;;;;;7.88;1.73;;;11.10;99.90;;;;;;4953256;28;20031;-77
2023/11/20 06:21:33;;;;;;;5.05;1.38;;;11.10;99.90;;;;;;4953755;29;20037;-77
2023/11/20 06:23:59;;;;;;;2.65;1.42;;;11.10;99.90;;;;;;4950823;28;20042;-77
2023/11/20 06:26:25;;;;;;;3.60;1.25;;;11.10;99.90;;;;;;4950701;28;20531;-76
2023/11/20 06:28:51;;;;;;;5.82;1.10;;;11.10;99.90;;;;;;4954140;28;20098;-77
2023/11/20 06:31:17;;;;;;;3.50;1.10;;;11.10;99.90;;;;;;4952118;29;20122;-77
2023/11/20 06:33:43;;;;;;;1.92;1.10;;;11.10;99.90;;;;;;4951438;29;20031;-78
2023/11/20 06:36:10;;;;;;;3.78;1.20;;;11.10;99.90;;;;;;4950567;28;20492;-77
2023/11/20 06:38:35;;;;;;;5.55;1.15;;;11.10;99.90;;;;;;4941527;28;20050;-78
2023/11/20 06:41:02;;;;;;;6.25;1.40;;;11.10;99.90;;;;;;4943515;29;20516;-78
2023/11/20 06:43:28;;;;;;;3.78;0.98;;;11.10;99.90;;;;;;4946859;28;20031;-76
2023/11/20 06:45:54;;;;;;;7.55;1.38;;;11.10;99.90;;;;;;4950289;28;20429;-78
2023/11/20 06:48:20;;;;;;;1.20;1.10;;;11.10;99.90;;;;;;4952942;29;20024;-78
2023/11/20 06:50:45;;;;;;;1.98;1.00;;;11.10;99.90;;;;;;4944921;28;20042;-76
2023/11/20 06:53:11;;;;;;;1.67;1.05;;;11.10;99.90;;;;;;4951979;28;20019;-78
2023/11/20 06:55:36;;;;;;;1.55;1.02;;;11.10;99.90;;;;;;4952191;29;20391;-77
2023/11/20 06:58:02;;;;;;;6.20;1.27;;;11.10;99.90;;;;;;4940433;29;20078;-77
2023/11/20 07:00:28;;;;;;;3.58;1.27;;;11.10;99.90;;;;;;4948780;28;20473;-78
2023/11/20 07:02:54;;;;;;;8.57;1.63;;;11.10;99.90;;;;;;4953104;28;20027;-77
2023/11/20 07:05:20;;;;;;;1.90;1.10;;;11.10;99.90;;;;;;4950746;29;20027;-78
2023/11/20 07:07:55;;;;;;;5.88;1.25;;;11.10;99.90;;;;;;4948659;29;20027;-76
2023/11/20 07:10:25;;;;;;;12.70;1.30;;;11.10;99.90;;;;;;4955132;28;20023;-78
2023/11/20 07:12:53;;;;;;;2.22;1.10;;;11.10;99.90;;;;;;4948034;28;20393;-78
2023/11/20 07:15:22;;;;;;;1.98;1.27;;;11.10;99.90;;;;;;4952079;28;20489;-75
2023/11/20 07:17:48;;;;;;;5.88;1.67;;;11.10;99.90;;;;;;4952352;29;20046;-77
2023/11/20 07:20:14;;;;;;;9.18;1.27;;;11.10;99.90;;;;;;4951807;28;20425;-77
2023/11/20 07:22:40;;;;;;;2.08;1.10;;;11.10;99.90;;;;;;4950505;28;20030;-77
2023/11/20 07:25:07;;;;;;;3.80;1.38;;;11.10;99.90;;;;;;4952747;29;20019;-76
2023/11/20 07:27:36;;;;;;;4.22;1.45;;;11.10;99.90;;;;;;4948671;29;20023;-76
2023/11/20 07:30:02;;;;;;;3.95;1.38;;;11.10;99.90;;;;;;4951472;28;20019;-76
2023/11/20 07:32:28;;;;;;;2.80;1.10;;;11.10;99.90;;;;;;4951404;28;20023;-78
2023/11/20 07:34:53;;;;;;;2.10;1.38;;;11.10;99.90;;;;;;4950141;29;20024;-77
2023/11/20 07:37:19;;;;;;;2.67;1.73;;;11.10;99.90;;;;;;4952488;29;20061;-78
2023/11/20 07:39:45;;;;;;;3.90;1.35;;;11.10;99.90;;;;;;4946502;28;20027;-78
2023/11/20 07:42:11;;;;;;;2.72;1.10;;;11.10;99.90;;;;;;4946985;29;20397;-78
2023/11/20 07:44:36;;;;;;;7.85;1.25;;;11.10;99.90;;;;;;4948900;28;20027;-78
2023/11/20 07:47:02;;;;;;;2.20;1.10;;;11.10;99.90;;;;;;4943778;28;20038;-77
2023/11/20 07:49:27;;;;;;;3.67;1.50;;;11.10;99.90;;;;;;4945759;28;20027;-77
2023/11/20 07:51:53;;;;;;;2.60;1.63;;;11.20;99.90;;;;;;4945587;29;20024;-77
2023/11/20 07:54:19;;;;;;;2.22;1.23;;;11.10;99.90;;;;;;4949654;29;20042;-78
2023/11/20 07:56:44;;;;;;;1.95;1.02;;;11.10;99.90;;;;;;4946075;28;20110;-77
2023/11/20 07:59:10;;;;;;;3.08;1.58;;;11.10;99.90;;;;;;4947191;29;20034;-78
2023/11/20 08:01:38;;;;;;;2.33;1.35;;;11.10;99.90;;;;;;4944996;29;20385;-78
2023/11/20 08:04:04;;;;;;;2.80;1.55;;;11.10;99.90;;;;;;4947252;29;20098;-76
2023/11/20 08:06:33;;;;;;;2.28;1.08;;;11.10;99.90;;;;;;4948069;28;20919;-76
2023/11/20 08:08:59;;;;;;;5.65;1.80;;;11.10;99.90;;;;;;4944314;29;20175;-78
2023/11/20 08:11:25;;;;;;;1.98;1.13;;;11.10;99.90;;;;;;4936514;29;20027;-76
2023/11/20 08:13:50;;;;;;;3.55;1.20;;;11.10;99.90;;;;;;4950580;29;20039;-78
2023/11/20 08:16:16;;;;;;;6.05;1.15;;;11.20;99.90;;;;;;4945587;29;20027;-76
2023/11/20 08:18:42;;;;;;;3.45;1.23;;;11.10;99.90;;;;;;4943648;29;20039;-78
2023/11/20 08:21:07;;;;;;;5.60;2.22;;;11.10;99.90;;;;;;4947421;29;20023;-78
2023/11/20 08:23:34;;;;;;;11.63;1.90;;;11.20;99.90;;;;;;4948084;28;20542;-79
2023/11/20 08:25:59;;;;;;;7.15;1.45;;;11.20;99.90;;;;;;4939309;28;20591;-78
2023/11/20 08:28:25;;;;;;;4.40;1.30;;;11.20;99.90;;;;;;4945380;28;20082;-79
2023/11/20 08:30:50;;;;;;;9.50;2.55;;;11.20;99.90;;;;;;4946005;29;20031;-77
2023/11/20 08:33:16;;;;;;;6.50;1.67;;;11.20;99.90;;;;;;4949424;29;20408;-78
2023/11/20 08:35:41;;;;;;;6.30;1.50;;;11.20;99.90;;;;;;4946408;28;20031;-77
2023/11/20 08:38:07;;;;;;;4.05;1.42;;;11.20;99.90;;;;;;4939338;29;20035;-78
2023/11/20 08:40:33;;;;;;;2.10;1.30;;;11.20;99.90;;;;;;4944408;28;20034;-80
2023/11/20 08:42:58;;;;;;;7.90;1.58;;;11.20;99.90;;;;;;4947785;28;20118;-78
2023/11/20 08:45:24;;;;;;;8.05;1.10;;;11.20;99.90;;;;;;4951323;29;20063;-78
2023/11/20 08:47:49;;;;;;;3.53;0.90;;;11.20;99.90;;;;;;4947565;29;20038;-77
2023/11/20 08:50:15;;;;;;;5.93;1.30;;;11.20;99.90;;;;;;4946239;29;20020;-78
2023/11/20 08:52:41;;;;;;;6.40;1.40;;;11.20;99.90;;;;;;4947304;28;20082;-78
2023/11/20 08:55:07;;;;;;;3.30;1.40;;;11.20;99.90;;;;;;4950106;29;20463;-78
2023/11/20 08:57:35;;;;;;;3.50;1.13;;;11.30;99.90;;;;;;4947956;29;20054;-78
2023/11/20 09:00:01;;;;;;;2.72;1.17;;;11.30;99.90;;;;;;4947723;28;20113;-78
2023/11/20 09:02:26;;;;;;;2.40;1.20;;;11.20;99.90;;;;;;4948232;28;20035;-78
2023/11/20 09:04:52;;;;;;;4.10;1.42;;;11.30;99.90;;;;;;4950308;28;20027;-78
2023/11/20 09:07:18;;;;;;;4.38;1.17;;;11.20;99.90;;;;;;4949348;29;20552;-78
2023/11/20 09:09:43;;;;;;;8.00;1.25;;;11.30;99.90;;;;;;4948852;28;20258;-79
2023/11/20 09:12:09;;;;;;;3.88;1.77;;;11.30;99.90;;;;;;4945186;29;20023;-77
2023/11/20 09:14:34;;;;;;;3.70;1.27;;;11.30;99.90;;;;;;4945983;28;20085;-77
2023/11/20 09:17:00;;;;;;;10.27;2.15;;;11.30;99.90;;;;;;4948783;28;20640;-77
2023/11/20 09:19:26;;;;;;;5.18;1.77;;;11.30;99.90;;;;;;4942010;29;20027;-77
2023/11/20 09:21:52;;;;;;;5.05;1.58;;;11.30;99.90;;;;;;4943095;28;20038;-77
2023/11/20 09:24:18;;;;;;;7.20;1.63;;;11.30;99.90;;;;;;4946948;28;20027;-80
2023/11/20 09:26:44;;;;;;;4.30;1.50;;;11.30;99.90;;;;;;4946530;28;20031;-78
2023/11/20 09:29:10;;;;;;;4.95;1.38;;;11.30;99.90;;;;;;4949953;28;20023;-77
2023/11/20 09:31:36;;;;;;;6.55;1.73;;;11.30;99.90;;;;;;4941724;28;20417;-80
2023/11/20 09:34:02;;;;;;;7.57;1.80;;;11.30;99.90;;;;;;4946219;29;20020;-77
2023/11/20 09:36:29;;;;;;;7.47;1.30;;;11.30;99.90;;;;;;4944552;28;20023;-77
2023/11/20 09:38:54;;;;;;;7.82;1.13;;;11.30;99.90;;;;;;4941266;29;20122;-78
2023/11/20 09:41:20;;;;;;;6.47;1.40;;;11.30;99.90;;;;;;4943275;29;20106;-77
2023/11/20 09:43:49;;;;;;;5.13;1.35;;;11.30;99.90;;;;;;4946071;28;20027;-79
2023/11/20 09:46:15;;;;;;;5.72;1.50;;;11.30;99.90;;;;;;4946943;29;20027;-78
2023/11/20 09:48:44;;;;;;;7.82;1.52;;;11.30;99.90;;;;;;4946169;29;20027;-78
2023/11/20 09:51:10;;;;;;;6.10;1.30;;;11.30;99.90;;;;;;4945640;29;20043;-79
2023/11/20 09:53:37;;;;;;;3.17;1.63;;;11.30;99.90;;;;;;4949699;28;20022;-78
2023/11/20 09:56:04;;;;;;;2.83;1.20;;;11.30;99.90;;;;;;4951519;28;20032;-78
2023/11/20 09:58:34;;;;;;;3.03;1.30;;;11.30;99.90;;;;;;4950598;28;20028;-79
2023/11/20 10:01:10;;;;;;;7.65;1.40;;;11.30;99.90;;;;;;4949480;28;20034;-78
2023/11/20 10:03:40;;;;;;;7.53;2.03;;;11.30;99.90;;;;;;4963542;28;20032;-77
2023/11/20 10:06:08;;;;;;;13.35;2.45;;;11.30;99.90;;;;;;4949816;29;20507;-78
2023/11/20 10:08:36;;;;;;;21.08;2.97;;;11.30;99.90;;;;;;4954965;29;20106;-78
2023/11/20 10:11:03;;;;;;;11.57;2.60;;;11.30;99.90;;;;;;4950648;28;20016;-79
2023/11/20 10:13:30;;;;;;;6.78;2.50;;;11.30;99.90;;;;;;4948769;29;20086;-78
2023/11/20 10:15:57;;;;;;;11.45;2.47;;;11.30;99.90;;;;;;4950257;28;20396;-77
2023/11/20 10:18:23;;;;;;;12.25;2.67;;;11.30;99.90;;;;;;4948795;29;20525;-79
2023/11/20 10:20:50;;;;;;;9.95;2.55;;;11.30;99.90;;;;;;4954176;29;20033;-79
2023/11/20 10:23:20;;;;;;;4.30;2.30;;;11.30;99.90;;;;;;4948609;29;20039;-78
2023/11/20 10:25:46;;;;;;;;;;;11.30;99.90;;;;;;4946701;28;20019;-78
2023/11/20 10:28:16;;;;;;;6.25;1.80;;;11.40;99.90;;;;;;4948195;28;20013;-78
2023/11/20 10:30:45;;;;;;;9.20;2.00;;;11.40;99.90;;;;;;4965826;28;20027;-79
2023/11/20 10:33:20;;;;;;;5.22;1.67;;;11.40;99.90;;;;;;4945602;29;20027;-78
2023/11/20 10:35:47;;;;;;;12.63;2.20;;;11.40;99.90;;;;;;4943584;29;20031;-78
2023/11/20 10:38:13;;;;;;;9.63;1.77;;;11.40;99.90;;;;;;4944921;28;20062;-79
2023/11/20 10:40:48;;;;;;;5.20;1.50;;;11.40;99.90;;;;;;4947353;29;20460;-79
2023/11/20 10:43:14;;;;;;;9.52;1.83;;;11.40;99.90;;;;;;4948618;29;20027;-80
2023/11/20 10:45:39;;;;;;;7.10;1.75;;;11.40;99.90;;;;;;4953040;28;20376;-78
2023/11/20 10:48:09;;;;;;;12.70;1.58;;;11.40;99.90;;;;;;4943286;29;20031;-78
2023/11/20 10:50:36;;;;;;;9.70;1.80;;;11.40;99.90;;;;;;4951281;28;20047;-79
2023/11/20 10:53:06;;;;;;;8.70;1.58;;;11.40;99.90;;;;;;4948415;29;20868;-78
2023/11/20 10:55:39;;;;;;;7.20;1.77;;;11.40;99.90;;;;;;4948343;29;20019;-78
2023/11/20 10:58:08;;;;;;;8.60;2.15;;;11.40;99.90;;;;;;4949429;28;20028;-79
2023/11/20 11:00:34;;;;;;;7.72;1.40;;;11.50;99.90;;;;;;4943416;29;20380;-80
2023/11/20 11:03:00;;;;;;;8.52;1.45;;;11.40;99.90;;;;;;4945305;28;20043;-78
2023/11/20 11:05:29;;;;;;;14.75;2.20;;;11.40;99.90;;;;;;4949906;28;20493;-79
2023/11/20 11:07:59;;;;;;;7.63;1.77;;;11.50;99.90;;;;;;4948003;29;20027;-79
2023/11/20 11:10:26;;;;;;;6.07;1.63;;;11.50;99.90;;;;;;4953834;28;20054;-78
2023/11/20 11:12:54;;;;;;;3.28;1.30;;;11.50;99.90;;;;;;4946128;29;20118;-78
2023/11/20 11:15:19;;;;;;;10.70;2.40;;;11.50;99.90;;;;;;4946892;28;20042;-79
2023/11/20 11:17:48;;;;;;;6.55;1.30;;;11.50;99.90;;;;;;4950162;28;20039;-79
2023/11/20 11:20:18;;;;;;;10.13;1.30;;;11.50;99.90;;;;;;4951887;29;20027;-78
2023/11/20 11:22:58;;;;;;;1.40;0.90;;;11.50;99.90;;;;;;4946248;29;20038;-79
2023/11/20 11:25:27;;;;;;;4.68;0.93;;;11.60;99.90;;;;;;4947278;29;20040;-79
2023/11/20 11:27:58;;;;;;;3.22;1.67;;;11.60;99.90;;;;;;4958454;28;20424;-79
2023/11/20 11:30:28;;;;;;;5.85;1.60;;;11.60;99.90;;;;;;4945962;29;20019;-79
2023/11/20 11:33:07;;;;;;;5.45;1.20;;;11.60;99.90;;;;;;4950647;28;20111;-78
2023/11/20 11:35:36;;;;;;;10.20;1.42;;;11.60;99.90;;;;;;4952895;28;20130;-78
2023/11/20 11:38:17;;;;;;;4.72;1.13;;;11.50;99.90;;;;;;4947474;29;20031;-79
2023/11/20 11:41:23;;;;;;;7.55;1.20;;;11.50;99.90;;;;;;4961114;28;20106;-77
2023/11/20 11:43:59;;;;;;;4.90;1.25;;;11.40;99.90;;;;;;4914410;28;20039;-78
2023/11/20 11:46:25;;;;;;;5.07;1.33;;;11.50;99.90;;;;;;4964110;28;20058;-79
2023/11/20 11:48:51;;;;;;;7.15;1.50;;;11.50;99.90;;;;;;4945670;28;20027;-79
2023/11/20 11:51:21;;;;;;;7.82;1.85;;;11.40;99.90;;;;;;4959142;28;20078;-79
2023/11/20 11:54:16;;;;;;;3.58;1.23;;;11.40;99.90;;;;;;4948382;28;20111;-78
2023/11/20 11:57:19;;;;;;;8.43;1.77;;;11.40;99.90;;;;;;4951087;29;20054;-78
2023/11/20 11:59:45;;;;;;;8.88;1.10;;;11.40;99.90;;;;;;4945569;29;20112;-78
2023/11/20 12:02:15;;;;;;;6.70;1.35;;;11.50;99.90;;;;;;4947159;28;20027;-78
2023/11/20 12:04:56;;;;;;;4.93;0.90;;;11.40;99.90;;;;;;4943800;29;20023;-79
2023/11/20 12:07:40;;;;;;;;;;;11.40;99.90;;;;;;4949808;28;20488;-78
2023/11/20 12:10:12;;;;;;;2.38;1.08;;;11.40;99.90;;;;;;4949800;29;20009;-78
2023/11/20 12:12:48;;;;;;;4.10;1.42;;;11.40;99.90;;;;;;4945122;28;20496;-78
2023/11/20 12:15:35;;;;;;;3.70;1.15;;;11.50;99.90;;;;;;4940113;29;20020;-78
2023/11/20 12:18:04;;;;;;;1.77;1.00;;;11.40;99.90;;;;;;4966700;28;20119;-79
2023/11/20 12:20:33;;;;;;;3.85;1.38;;;11.40;99.90;;;;;;4944332;29;20065;-78
2023/11/20 12:23:06;;;;;;;4.20;1.02;;;11.40;99.90;;;;;;4950264;28;20488;-79
2023/11/20 12:25:39;;;;;;;9.30;0.98;;;11.40;99.90;;;;;;4947284;29;20074;-78
2023/11/20 12:28:08;;;;;;;1.75;1.00;;;11.40;99.90;;;;;;4943118;28;20054;-79
2023/11/20 12:30:34;;;;;;;4.07;1.10;;;11.40;99.90;;;;;;4960186;28;20049;-78
2023/11/20 12:33:01;;;;;;;10.32;1.50;;;11.40;99.90;;;;;;4946444;29;20313;-78
2023/11/20 12:35:27;;;;;;;19.27;2.08;;;11.40;99.90;;;;;;4949859;28;20019;-78
2023/11/20 12:37:52;;;;;;;2.75;1.00;;;11.40;99.90;;;;;;4951023;29;20101;-78
2023/11/20 12:40:18;;;;;;;5.55;1.13;;;11.40;99.90;;;;;;4943400;29;20541;-79
2023/11/20 12:42:44;;;;;;;5.97;1.40;;;11.40;99.90;;;;;;4944562;29;20027;-78
2023/11/20 12:45:10;;;;;;;8.40;1.45;;;11.40;99.90;;;;;;4948081;29;20123;-78
2023/11/20 12:47:36;;;;;;;1.95;0.90;;;11.40;99.90;;;;;;4948632;28;20496;-79
2023/11/20 12:50:02;;;;;;;8.20;1.50;;;11.40;99.90;;;;;;4949053;28;20019;-78
2023/11/20 12:52:28;;;;;;;2.50;0.93;;;11.40;99.90;;;;;;4944075;29;20030;-78
2023/11/20 12:54:54;;;;;;;5.13;1.60;;;11.40;99.90;;;;;;4946427;28;20054;-78
2023/11/20 12:57:21;;;;;;;4.75;0.90;;;11.40;99.90;;;;;;4942309;28;20034;-78
2023/11/20 12:59:47;;;;;;;3.42;1.20;;;11.40;99.90;;;;;;4947751;28;20039;-79
2023/11/20 13:02:14;;;;;;;5.78;1.08;;;11.40;99.90;;;;;;4950046;28;20031;-79
2023/11/20 13:04:40;;;;;;;4.00;0.80;;;11.40;99.90;;;;;;4945796;28;20047;-79
2023/11/20 13:07:06;;;;;;;3.30;1.23;;;11.40;99.90;;;;;;4942893;28;20035;-78
2023/11/20 13:09:32;;;;;;;3.72;1.05;;;11.40;99.90;;;;;;4950242;28;20101;-79
2023/11/20 13:11:58;;;;;;;5.90;0.82;;;11.40;99.90;;;;;;4948605;28;20021;-79
2023/11/20 13:14:23;;;;;;;2.38;0.90;;;11.40;99.90;;;;;;4949256;29;20027;-78
2023/11/20 13:16:49;;;;;;;3.75;1.02;;;11.50;99.90;;;;;;4942154;29;20524;-79
2023/11/20 13:19:37;;;;;;;1.80;0.80;;;11.40;99.90;;;;;;4942387;29;20417;-79
2023/11/20 13:22:04;;;;;;;6.50;1.00;;;11.40;99.90;;;;;;4946777;29;20110;-78
2023/11/20 13:24:29;;;;;;;4.95;0.80;;;11.40;99.90;;;;;;4950424;28;20031;-79
2023/11/20 13:26:55;;;;;;;1.17;0.85;;;11.40;99.90;;;;;;4944201;29;20046;-78
2023/11/20 13:29:21;;;;;;;2.28;0.80;;;11.40;99.90;;;;;;4944308;29;20028;-79
2023/11/20 13:31:47;;;;;;;4.07;0.80;;;11.40;99.90;;;;;;4949376;29;20020;-79
2023/11/20 13:34:13;;;;;;;3.17;1.00;;;11.50;99.90;;;;;;4949022;29;20030;-78
2023/11/20 13:36:39;;;;;;;1.60;0.80;;;11.40;99.90;;;;;;4953530;28;20031;-78
2023/11/20 13:39:07;;;;;;;1.38;0.73;;;11.40;99.90;;;;;;4951227;29;20538;-78
2023/11/20 13:41:33;;;;;;;5.20;1.52;;;11.40;99.90;;;;;;4943833;29;20028;-78
2023/11/20 13:43:58;;;;;;;2.55;0.60;;;11.40;99.90;;;;;;4945800;28;20062;-77
2023/11/20 13:46:24;;;;;;;3.72;0.80;;;11.40;99.90;;;;;;4949017;28;20039;-79
2023/11/20 13:48:49;;;;;;;0.65;0.65;;;11.40;99.90;;;;;;4951623;28;20023;-79
2023/11/20 13:51:15;;;;;;;2.20;1.42;;;11.40;99.90;;;;;;4950410;29;20034;-78
2023/11/20 13:53:42;;;;;;;1.25;0.63;;;11.40;99.90;;;;;;4946608;29;20038;-79
2023/11/20 13:56:08;;;;;;;1.05;0.80;;;11.40;99.90;;;;;;4949031;28;20051;-79
2023/11/20 13:58:35;;;;;;;1.00;0.60;;;11.40;99.90;;;;;;4948269;29;20500;-77
2023/11/20 14:01:01;;;;;;;1.77;0.60;;;11.40;99.90;;;;;;4949571;29;20027;-78
2023/11/20 14:03:29;;;;;;;0.60;0.60;;;11.40;99.90;;;;;;4953634;28;20023;-78
2023/11/20 14:05:54;;;;;;;1.58;1.15;;;11.50;99.90;;;;;;4948482;29;20085;-78
2023/11/20 14:08:20;;;;;;;0.70;0.70;;;11.50;99.90;;;;;;4946631;29;20157;-79
2023/11/20 14:10:59;;;;;;;4.25;0.77;;;11.50;99.90;;;;;;4947219;29;20027;-79
2023/11/20 14:13:26;;;;;;;3.42;0.80;;;11.50;99.90;;;;;;4950471;29;20783;-79
2023/11/20 14:15:53;;;;;;;3.90;0.70;;;11.40;99.90;;;;;;4953831;28;20106;-79
2023/11/20 14:18:20;;;;;;;9.23;0.70;;;11.50;99.90;;;;;;4943935;28;20429;-78
2023/11/20 14:20:46;;;;;;;2.55;0.88;;;11.40;99.90;;;;;;4950869;28;20019;-78
2023/11/20 14:23:11;;;;;;;2.38;0.95;;;11.40;99.90;;;;;;4948272;28;20023;-79
2023/11/20 14:25:37;;;;;;;0.57;0.57;;;11.40;99.90;;;;;;4948166;29;20429;-78
2023/11/20 14:28:03;;;;;;;0.80;0.60;;;11.40;99.90;;;;;;4951637;29;20559;-78
2023/11/20 14:30:29;;;;;;;1.10;0.73;;;11.40;99.90;;;;;;4944212;29;20023;-78
2023/11/20 14:32:56;;;;;;;0.98;0.50;;;11.40;99.90;;;;;;4948553;28;20023;-78
2023/11/20 14:35:22;;;;;;;0.77;0.77;;;11.40;99.90;;;;;;4948728;29;20524;-78
2023/11/20 14:37:48;;;;;;;1.33;0.55;;;11.40;99.90;;;;;;4951110;29;20123;-78
2023/11/20 14:40:18;;;;;;;5.50;1.23;;;11.40;99.90;;;;;;4952283;28;20440;-79
2023/11/20 14:42:48;;;;;;;2.00;1.08;;;11.40;99.90;;;;;;4942084;29;20115;-78
2023/11/20 14:45:16;;;;;;;0.80;0.80;;;11.40;99.90;;;;;;4943906;28;20114;-78
2023/11/20 14:47:46;;;;;;;2.67;0.50;;;11.40;99.90;;;;;;4960575;28;20119;-78
2023/11/20 14:50:13;;;;;;;0.75;0.60;;;11.40;99.90;;;;;;4949529;28;20026;-79
2023/11/20 14:52:40;;;;;;;3.05;0.85;;;11.40;99.90;;;;;;4951838;28;20102;-79
2023/11/20 14:55:07;;;;;;;2.80;0.60;;;11.40;99.90;;;;;;4944689;28;20014;-78
2023/11/20 14:57:34;;;;;;;6.45;0.80;;;11.40;99.90;;;;;;4943319;29;20052;-79
2023/11/20 15:00:00;;;;;;;3.33;1.02;;;11.40;99.90;;;;;;4948482;28;20019;-80
2023/11/20 15:02:26;;;;;;;3.30;0.75;;;11.40;99.90;;;;;;4944655;29;20157;-81
2023/11/20 15:04:51;;;;;;;4.03;0.90;;;11.30;99.90;;;;;;4948744;28;20432;-81
2023/11/20 15:07:18;;;;;;;5.85;1.17;;;11.30;99.90;;;;;;4948419;28;20107;-79
2023/11/20 15:09:44;;;;;;;6.80;0.82;;;11.30;99.90;;;;;;4944120;29;20028;-80
2023/11/20 15:12:10;;;;;;;0.75;0.70;;;11.30;99.90;;;;;;4947280;29;20026;-80
2023/11/20 15:14:38;;;;;;;2.10;0.90;;;11.30;99.90;;;;;;4942240;28;20031;-79
2023/11/20 15:17:07;;;;;;;1.95;0.80;;;11.30;99.90;;;;;;4949017;29;20050;-80
2023/11/20 15:19:33;;;;;;;1.85;0.82;;;11.30;99.90;;;;;;4945335;28;20082;-80
2023/11/20 15:21:58;;;;;;;4.20;1.23;;;11.30;99.90;;;;;;4946140;28;20435;-80
2023/11/20 15:24:24;;;;;;;0.85;0.82;;;11.30;99.90;;;;;;4944069;28;20039;-81
2023/11/20 15:26:49;;;;;;;1.92;0.75;;;11.30;99.90;;;;;;4949899;29;20071;-82
2023/11/20 15:29:15;;;;;;;2.05;1.00;;;11.30;99.90;;;;;;4947748;28;20038;-80
2023/11/20 15:31:40;;;;;;;1.25;0.82;;;11.30;99.90;;;;;;4947447;29;20018;-81
2023/11/20 15:34:09;;;;;;;3.72;0.95;;;11.30;99.90;;;;;;4949619;28;20555;-80
2023/11/20 15:36:37;;;;;;;3.78;1.00;;;11.30;99.90;;;;;;4947421;29;20178;-81
2023/11/20 15:39:04;;;;;;;1.65;1.02;;;11.60;99.90;;;;;;4947233;29;20015;-82
2023/11/20 15:41:29;;;;;;;3.90;1.00;;;11.50;99.90;;;;;;4947605;29;20365;-78
2023/11/20 15:43:55;;;;;;;1.00;0.82;;;11.40;99.90;;;;;;4951195;28;20112;-78
2023/11/20 15:46:20;;;;;;;2.33;0.80;;;11.40;99.90;;;;;;4956108;28;20091;-79
2023/11/20 15:48:47;;;;;;;1.90;1.00;;;11.40;99.90;;;;;;4944485;29;20030;-78
2023/11/20 15:51:12;;;;;;;4.32;1.08;;;11.40;99.90;;;;;;4945536;28;20030;-78
2023/11/20 15:53:38;;;;;;;0.70;0.68;;;11.30;99.90;;;;;;4949656;28;20015;-78
2023/11/20 15:56:09;;;;;;;3.13;1.10;;;11.30;99.90;;;;;;4944156;29;20515;-80
2023/11/20 15:58:34;;;;;;;2.15;0.80;;;11.30;99.90;;;;;;4943094;29;20694;-79
2023/11/20 16:01:00;;;;;;;2.00;1.10;;;11.30;99.90;;;;;;4946811;29;20137;-78
2023/11/20 16:03:26;;;;;;;4.82;1.20;;;11.30;99.90;;;;;;4948172;28;20027;-78
2023/11/20 16:05:51;;;;;;;3.58;1.27;;;11.30;99.90;;;;;;4948183;28;20094;-78
2023/11/20 16:08:17;;;;;;;4.45;1.27;;;11.30;99.90;;;;;;4945350;29;20501;-78
2023/11/20 16:10:42;;;;;;;3.63;1.10;;;11.30;99.90;;;;;;4941636;29;20142;-78
2023/11/20 16:13:08;;;;;;;2.00;0.90;;;11.30;99.90;;;;;;4945831;29;20073;-77
2023/11/20 16:15:34;;;;;;;2.72;1.30;;;11.30;99.90;;;;;;4947975;29;20023;-78
2023/11/20 16:17:59;;;;;;;4.18;1.30;;;11.30;99.90;;;;;;4947127;29;20453;-79
2023/11/20 16:20:25;;;;;;;2.22;1.30;;;11.30;99.90;;;;;;4947309;29;20132;-78
2023/11/20 16:22:52;;;;;;;3.25;1.00;;;11.30;99.90;;;;;;4945533;29;20039;-78
2023/11/20 16:25:17;;;;;;;12.02;1.90;;;11.30;99.90;;;;;;4944194;28;20031;-77
2023/11/20 16:27:43;;;;;;;7.65;1.52;;;11.30;99.90;;;;;;4946142;29;20034;-78
2023/11/20 16:30:09;;;;;;;6.97;1.25;;;11.30;99.90;;;;;;4948679;28;20110;-78
2023/11/20 16:32:35;;;;;;;3.88;1.42;;;11.30;99.90;;;;;;4943828;29;20019;-79
2023/11/20 16:35:01;;;;;;;1.27;1.05;;;11.30;99.90;;;;;;4946706;28;20030;-78
2023/11/20 16:37:27;;;;;;;3.88;1.45;;;11.30;99.90;;;;;;4940909;29;20020;-78
2023/11/20 16:39:52;;;;;;;2.42;1.17;;;11.30;99.90;;;;;;4945070;29;20038;-78
2023/11/20 16:42:18;;;;;;;3.97;1.65;;;11.30;99.90;;;;;;4945560;29;20027;-78
2023/11/20 16:44:43;;;;;;;3.28;1.75;;;11.30;99.90;;;;;;4948450;29;20082;-78
2023/11/20 16:47:09;;;;;;;3.47;1.40;;;11.30;99.90;;;;;;4947229;29;20028;-78